Time;durP1;ratioP1;P1;durP2;ratioP2;P2;SDS_P1;SDS_P2;PMS_P1;PMS_P2;Temp;Humidity;BMP_temperature;BMP_pressure;BME280_temperature;BME280_humidity;BME280_pressure;Samples;Min_cycle;Max_cycle;Signal;HPM_P1;HPM_P2
2021/07/11 00:02:08;;;;;;;4.75;2.70;;;;;;;15.60;93.66;95600.69;5048874;28;20083;-76
2021/07/11 00:04:33;;;;;;;3.50;2.33;;;;;;;15.55;93.58;95603.47;5051462;28;20051;-76
2021/07/11 00:06:59;;;;;;;3.92;2.38;;;;;;;15.57;93.72;95617.19;5050074;28;20498;-76
2021/07/11 00:09:25;;;;;;;5.28;2.38;;;;;;;15.60;93.99;95616.59;5048263;28;20494;-78
2021/07/11 00:11:50;;;;;;;4.20;2.20;;;;;;;15.59;94.59;95621.13;5033898;28;20037;-76
2021/07/11 00:14:17;;;;;;;4.60;2.35;;;;;;;15.55;94.91;95629.97;5050250;28;20071;-76
2021/07/11 00:16:43;;;;;;;5.53;2.65;;;;;;;15.70;93.67;95634.16;5051111;28;20478;-77
2021/07/11 00:19:08;;;;;;;5.57;2.60;;;;;;;15.69;91.83;95641.34;5027187;28;20530;-79
2021/07/11 00:21:34;;;;;;;4.97;2.40;;;;;;;15.66;90.04;95649.09;5048718;28;20056;-78
2021/07/11 00:23:59;;;;;;;3.83;2.42;;;;;;;15.51;88.57;95644.91;5030825;28;20045;-78
2021/07/11 00:26:25;;;;;;;2.97;2.30;;;;;;;15.50;89.29;95659.25;5038442;28;20083;-78
2021/07/11 00:28:50;;;;;;;4.97;2.40;;;;;;;15.34;90.52;95669.38;5048281;28;20525;-79
2021/07/11 00:31:16;;;;;;;4.88;2.50;;;;;;;15.32;89.20;95667.03;5051001;28;20044;-79
2021/07/11 00:33:41;;;;;;;4.30;2.20;;;;;;;15.22;89.55;95659.28;5052558;28;20150;-79
2021/07/11 00:36:07;;;;;;;5.25;2.65;;;;;;;15.21;90.96;95657.69;5030925;28;21738;-80
2021/07/11 00:38:33;;;;;;;3.72;2.10;;;;;;;15.26;88.95;95654.97;5053425;28;20041;-78
2021/07/11 00:41:00;;;;;;;3.50;2.47;;;;;;;15.19;90.02;95659.88;5052788;28;20041;-78
2021/07/11 00:43:26;;;;;;;4.47;2.58;;;;;;;15.11;90.91;95657.91;5049520;28;20037;-78
2021/07/11 00:45:52;;;;;;;4.55;2.30;;;;;;;15.01;90.79;95675.56;5046172;28;20053;-80
2021/07/11 00:48:18;;;;;;;4.55;2.40;;;;;;;14.95;91.47;95671.44;5054648;28;20040;-78
2021/07/11 00:50:45;;;;;;;3.95;2.40;;;;;;;14.87;91.00;95659.66;5059807;28;20067;-78
2021/07/11 00:53:11;;;;;;;6.25;2.30;;;;;;;14.90;92.20;95664.34;5045136;28;20033;-78
2021/07/11 00:55:37;;;;;;;3.85;2.22;;;;;;;14.89;92.45;95656.72;5050680;28;20045;-78
2021/07/11 00:58:03;;;;;;;3.75;2.28;;;;;;;14.76;92.88;95657.47;5050481;28;20071;-78
2021/07/11 01:00:30;;;;;;;4.70;2.42;;;;;;;14.66;95.04;95661.88;5039093;28;20042;-78
2021/07/11 01:03:03;;;;;;;3.33;2.28;;;;;;;14.76;91.94;95658.25;5050157;28;20045;-79
2021/07/11 01:05:29;;;;;;;5.20;2.30;;;;;;;14.71;92.23;95653.84;5058966;28;20487;-79
2021/07/11 01:08:04;;;;;;;3.88;2.22;;;;;;;14.64;93.42;95656.09;5044294;28;20037;-79
2021/07/11 01:10:34;;;;;;;3.05;2.30;;;;;;;14.56;93.75;95659.38;5048072;28;20048;-79
2021/07/11 01:13:02;;;;;;;3.10;2.20;;;;;;;14.60;93.80;95660.34;5046690;28;20032;-78
2021/07/11 01:15:29;;;;;;;3.67;2.50;;;;;;;14.57;93.39;95650.34;5058485;28;20033;-78
2021/07/11 01:18:01;;;;;;;4.95;2.50;;;;;;;14.51;94.46;95654.13;5056061;28;20045;-79
2021/07/11 01:20:35;;;;;;;4.82;2.30;;;;;;;14.53;93.77;95659.94;5044764;28;20044;-79
2021/07/11 01:23:02;;;;;;;5.13;2.55;;;;;;;14.52;94.46;95658.38;5044255;28;20036;-78
2021/07/11 01:25:45;;;;;;;5.15;2.60;;;;;;;14.51;94.56;95662.09;5051127;28;20045;-78
2021/07/11 01:28:15;;;;;;;3.63;2.30;;;;;;;14.49;95.10;95658.94;5032259;28;20041;-78
2021/07/11 01:30:41;;;;;;;3.35;2.40;;;;;;;14.49;95.27;95664.25;5028098;28;20063;-79
2021/07/11 01:33:09;;;;;;;4.13;2.42;;;;;;;14.56;94.69;95667.31;5044404;28;20033;-79
2021/07/11 01:35:36;;;;;;;4.57;2.40;;;;;;;14.49;95.00;95658.94;5058468;28;20049;-79
2021/07/11 01:38:03;;;;;;;4.00;2.38;;;;;;;14.53;94.86;95668.66;5061515;28;20041;-78
2021/07/11 01:40:30;;;;;;;5.38;2.70;;;;;;;14.47;95.59;95663.78;5051692;28;20043;-78
2021/07/11 01:42:57;;;;;;;4.57;2.35;;;;;;;14.49;94.57;95664.25;5065605;28;20371;-79
2021/07/11 01:45:22;;;;;;;3.58;2.40;;;;;;;14.49;94.47;95664.25;5050584;28;20048;-78
2021/07/11 01:47:48;;;;;;;3.17;2.25;;;;;;;14.45;93.87;95668.56;5029016;28;20037;-78
2021/07/11 01:50:15;;;;;;;5.80;2.40;;;;;;;14.44;93.89;95666.97;5039269;28;20079;-78
2021/07/11 01:52:42;;;;;;;3.42;2.20;;;;;;;14.37;93.83;95660.19;5055672;28;20048;-78
2021/07/11 01:55:09;;;;;;;4.07;2.20;;;;;;;14.43;93.58;95665.41;5062189;28;20445;-79
2021/07/11 01:57:36;;;;;;;3.40;2.22;;;;;;;14.34;94.06;95663.41;5060331;28;20045;-77
2021/07/11 02:00:07;;;;;;;3.13;2.10;;;;;;;14.36;93.39;95671.84;5053088;28;20072;-78
2021/07/11 02:02:33;;;;;;;3.08;2.10;;;;;;;14.26;94.18;95661.44;5051896;28;20083;-78
2021/07/11 02:05:10;;;;;;;2.45;1.95;;;;;;;14.29;92.56;95674.06;5052537;28;20044;-79
2021/07/11 02:07:36;;;;;;;2.42;1.83;;;;;;;14.25;93.06;95661.72;5056037;28;20084;-79
2021/07/11 02:10:06;;;;;;;4.72;2.05;;;;;;;14.22;92.92;95665.72;5035590;28;20075;-79
2021/07/11 02:12:34;;;;;;;2.53;1.83;;;;;;;14.22;92.73;95665.72;5043647;28;20563;-79
2021/07/11 02:15:02;;;;;;;2.60;1.90;;;;;;;14.15;93.95;95660.81;5035614;28;20041;-79
2021/07/11 02:17:30;;;;;;;2.53;1.90;;;;;;;14.17;93.08;95671.09;5053413;28;20098;-78
2021/07/11 02:20:00;;;;;;;2.95;1.80;;;;;;;14.13;93.04;95678.03;5035544;28;20040;-78
2021/07/11 02:22:26;;;;;;;2.95;1.90;;;;;;;14.09;93.87;95669.09;5044701;28;20033;-77
2021/07/11 02:24:52;;;;;;;2.22;1.73;;;;;;;14.03;92.80;95668.38;5053399;28;20037;-77
2021/07/11 02:27:19;;;;;;;2.75;1.80;;;;;;;14.03;92.59;95674.47;5052864;28;20037;-77
2021/07/11 02:29:46;;;;;;;2.63;1.70;;;;;;;14.01;93.62;95670.56;5048828;28;20491;-78
2021/07/11 02:32:14;;;;;;;2.25;1.63;;;;;;;14.04;93.30;95686.63;5049742;28;20041;-78
2021/07/11 02:34:42;;;;;;;3.28;1.80;;;;;;;13.98;92.98;95673.78;5052417;28;20657;-78
2021/07/11 02:37:10;;;;;;;2.95;1.75;;;;;;;13.99;93.36;95677.97;5053265;28;20041;-79
2021/07/11 02:39:39;;;;;;;3.08;1.83;;;;;;;13.92;93.16;95673.06;5036073;28;20041;-79
2021/07/11 02:42:09;;;;;;;3.30;1.65;;;;;;;13.90;93.40;95685.78;5035633;28;20453;-78
2021/07/11 02:44:37;;;;;;;3.33;1.67;;;;;;;13.91;92.83;95687.34;5052719;28;20049;-78
2021/07/11 02:47:21;;;;;;;3.05;1.70;;;;;;;13.86;93.63;95682.13;5046736;28;20037;-79
2021/07/11 02:49:52;;;;;;;2.22;1.42;;;;;;;13.89;94.18;95683.41;5052782;28;20041;-78
2021/07/11 02:52:21;;;;;;;2.30;1.60;;;;;;;13.92;93.88;95667.75;5039068;28;20044;-77
2021/07/11 02:54:58;;;;;;;2.47;1.58;;;;;;;13.89;93.28;95673.59;5054567;28;20041;-78
2021/07/11 02:57:28;;;;;;;3.25;1.58;;;;;;;13.89;92.83;95673.59;5051730;28;20048;-79
2021/07/11 02:59:54;;;;;;;2.40;1.60;;;;;;;13.87;92.42;95681.06;5052707;28;20745;-79
2021/07/11 03:02:22;;;;;;;2.72;1.70;;;;;;;13.82;93.31;95667.88;5042375;28;20498;-77
2021/07/11 03:04:50;;;;;;;2.00;1.40;;;;;;;13.84;92.79;95671.03;5034300;28;20045;-77
2021/07/11 03:07:16;;;;;;;2.05;1.60;;;;;;;13.80;94.03;95670.03;5052174;28;20041;-78
2021/07/11 03:09:42;;;;;;;1.58;1.40;;;;;;;13.78;93.85;95661.63;5049306;28;20041;-78
2021/07/11 03:12:09;;;;;;;2.33;1.50;;;;;;;13.79;93.92;95668.47;5053700;28;20121;-77
2021/07/11 03:14:36;;;;;;;2.42;1.55;;;;;;;13.80;93.40;95664.75;5051917;28;20498;-77
2021/07/11 03:17:03;;;;;;;2.95;1.40;;;;;;;13.74;93.53;95665.91;5034514;28;20041;-77
2021/07/11 03:19:30;;;;;;;2.72;1.50;;;;;;;13.71;94.13;95663.84;5049159;28;20037;-77
2021/07/11 03:21:57;;;;;;;1.50;1.40;;;;;;;13.74;93.47;95665.91;5056786;28;20083;-78
2021/07/11 03:24:28;;;;;;;4.70;1.30;;;;;;;13.68;94.28;95668.59;5046629;28;20056;-79
2021/07/11 03:26:56;;;;;;;2.15;1.48;;;;;;;13.67;93.60;95666.25;5051616;28;20045;-77
2021/07/11 03:29:53;;;;;;;3.38;1.42;;;;;;;13.62;94.26;95661.81;5050439;28;20111;-79
2021/07/11 03:32:20;;;;;;;1.83;1.50;;;;;;;13.60;95.15;95657.88;5052710;28;20045;-78
2021/07/11 03:34:48;;;;;;;1.38;1.23;;;;;;;13.56;94.54;95655.03;5052104;28;20041;-79
2021/07/11 03:37:15;;;;;;;1.40;1.30;;;;;;;13.59;94.37;95658.94;5041674;28;20041;-77
2021/07/11 03:39:44;;;;;;;3.92;1.52;;;;;;;13.55;94.17;95653.44;5055182;28;20040;-77
2021/07/11 03:42:11;;;;;;;2.17;1.20;;;;;;;13.43;95.22;95651.22;5054081;28;20067;-78
2021/07/11 03:44:40;;;;;;;2.42;1.40;;;;;;;13.56;95.49;95660.31;5051154;28;20074;-78
2021/07/11 03:47:10;;;;;;;2.10;1.30;;;;;;;13.59;94.58;95670.31;5051724;28;20072;-78
2021/07/11 03:49:38;;;;;;;3.42;1.30;;;;;;;13.50;94.46;95664.06;5047994;28;20049;-77
2021/07/11 03:52:07;;;;;;;2.13;1.38;;;;;;;13.48;94.89;95669.66;5048256;28;20273;-78
2021/07/11 03:54:35;;;;;;;2.30;1.50;;;;;;;13.40;95.73;95664.22;5036410;28;20040;-77
2021/07/11 03:57:01;;;;;;;2.92;1.40;;;;;;;13.50;95.22;95666.72;5054867;28;20406;-77
2021/07/11 03:59:29;;;;;;;4.75;1.30;;;;;;;13.44;95.21;95662.56;5033567;28;20040;-77
2021/07/11 04:01:55;;;;;;;3.67;1.40;;;;;;;13.46;95.50;95674.44;5054539;28;20099;-77
2021/07/11 04:04:22;;;;;;;2.17;1.40;;;;;;;13.49;94.98;95675.75;5033440;28;20037;-77
2021/07/11 04:06:51;;;;;;;2.65;1.60;;;;;;;13.42;95.20;95669.97;5051808;28;20037;-78
2021/07/11 04:09:19;;;;;;;1.55;1.40;;;;;;;13.30;96.25;95663.25;5048781;28;20044;-77
2021/07/11 04:11:46;;;;;;;1.73;1.30;;;;;;;13.30;96.42;95668.53;5051067;28;20044;-77
2021/07/11 04:14:15;;;;;;;2.22;1.40;;;;;;;13.21;96.65;95667.56;5056485;28;20513;-78
2021/07/11 04:16:43;;;;;;;2.13;1.38;;;;;;;13.20;96.79;95663.34;5046361;28;20042;-77
2021/07/11 04:19:09;;;;;;;2.13;1.35;;;;;;;13.28;96.68;95662.72;5050240;28;20112;-77
2021/07/11 04:21:34;;;;;;;2.13;1.50;;;;;;;13.17;98.03;95659.44;5053609;28;20045;-77
2021/07/11 04:24:02;;;;;;;1.70;1.40;;;;;;;13.22;95.88;95661.22;5051576;28;20067;-77
2021/07/11 04:26:37;;;;;;;3.17;1.48;;;;;;;13.22;96.26;95661.22;5052102;28;20109;-77
2021/07/11 04:29:04;;;;;;;4.82;1.25;;;;;;;13.22;96.01;95650.66;5048481;28;20041;-77
2021/07/11 04:31:29;;;;;;;3.28;1.30;;;;;;;13.28;95.73;95660.06;5031712;28;20042;-77
2021/07/11 04:33:55;;;;;;;1.80;1.40;;;;;;;13.25;96.13;95660.66;5052707;28;20794;-78
2021/07/11 04:36:20;;;;;;;2.72;1.38;;;;;;;13.32;95.78;95655.03;5069405;28;20068;-77
2021/07/11 04:38:46;;;;;;;2.28;1.30;;;;;;;13.21;96.01;95648.28;5030423;28;20033;-77
2021/07/11 04:41:12;;;;;;;2.60;1.50;;;;;;;13.16;96.69;95641.22;5055711;28;20038;-78
2021/07/11 04:43:39;;;;;;;2.08;1.30;;;;;;;13.22;95.85;95645.34;5049874;28;20041;-77
2021/07/11 04:46:04;;;;;;;2.45;1.30;;;;;;;13.19;95.48;95640.63;5051718;28;20048;-77
2021/07/11 04:48:30;;;;;;;1.98;1.38;;;;;;;13.25;95.08;95639.50;5051546;28;20453;-77
2021/07/11 04:50:56;;;;;;;2.88;1.40;;;;;;;13.17;95.60;95653.34;5051501;28;20433;-78
2021/07/11 04:53:22;;;;;;;2.08;1.00;;;;;;;13.17;95.53;95650.69;5039118;28;20128;-78
2021/07/11 04:55:48;;;;;;;3.85;1.40;;;;;;;13.14;95.86;95664.47;5064991;28;20064;-78
2021/07/11 04:58:15;;;;;;;1.35;1.20;;;;;;;13.08;96.08;95661.09;5064171;28;20068;-78
2021/07/11 05:00:41;;;;;;;1.35;1.05;;;;;;;13.09;96.48;95656.63;5048116;28;20103;-77
2021/07/11 05:03:07;;;;;;;2.42;1.30;;;;;;;13.12;96.98;95656.81;5048909;28;20098;-78
2021/07/11 05:05:35;;;;;;;3.88;1.60;;;;;;;13.09;96.80;95659.25;5033986;28;20120;-79
2021/07/11 05:08:02;;;;;;;1.48;1.38;;;;;;;13.05;97.02;95655.59;5040012;28;20123;-78
2021/07/11 05:10:28;;;;;;;2.15;1.30;;;;;;;13.06;97.16;95665.06;5044526;28;20148;-78
2021/07/11 05:12:53;;;;;;;1.60;1.30;;;;;;;13.12;96.61;95661.34;5017587;28;20049;-78
2021/07/11 05:15:19;;;;;;;1.77;1.35;;;;;;;13.10;97.53;95664.25;5040700;28;20041;-78
2021/07/11 05:17:44;;;;;;;2.83;1.50;;;;;;;13.06;97.80;95665.06;5061142;28;20616;-77
2021/07/11 05:20:10;;;;;;;2.33;1.40;;;;;;;13.07;97.93;95658.75;5023906;28;20044;-78
2021/07/11 05:22:36;;;;;;;2.55;1.33;;;;;;;13.12;97.14;95658.69;5034429;28;20115;-79
2021/07/11 05:25:03;;;;;;;2.10;1.55;;;;;;;13.13;97.79;95668.16;5053329;28;20059;-78
2021/07/11 05:27:29;;;;;;;1.98;1.15;;;;;;;13.18;97.08;95660.19;5056059;28;20037;-78
2021/07/11 05:29:55;;;;;;;1.75;1.25;;;;;;;13.18;97.53;95660.19;5061838;28;20123;-78
2021/07/11 05:32:20;;;;;;;1.80;1.08;;;;;;;13.19;96.95;95656.50;5073413;28;20104;-78
2021/07/11 05:34:46;;;;;;;2.42;1.35;;;;;;;13.21;96.94;95657.00;5046300;28;20460;-77
2021/07/11 05:37:11;;;;;;;1.98;1.40;;;;;;;13.19;97.23;95664.44;5056109;28;20448;-77
2021/07/11 05:39:37;;;;;;;1.90;1.30;;;;;;;13.23;96.62;95662.00;5036774;28;20401;-77
2021/07/11 05:42:03;;;;;;;2.20;1.23;;;;;;;13.25;96.16;95659.88;5055307;28;20041;-77
2021/07/11 05:44:28;;;;;;;1.67;1.10;;;;;;;13.26;95.93;95653.50;5058613;28;20036;-78
2021/07/11 05:46:54;;;;;;;1.65;1.15;;;;;;;13.19;96.58;95651.22;5058848;28;20048;-79
2021/07/11 05:49:20;;;;;;;1.55;1.25;;;;;;;13.17;96.54;95653.34;5056105;28;20033;-77
2021/07/11 05:51:45;;;;;;;2.80;1.42;;;;;;;13.24;96.91;95653.78;5036039;28;20068;-78
2021/07/11 05:54:11;;;;;;;2.15;1.30;;;;;;;13.32;97.33;95655.81;5055948;28;20037;-77
2021/07/11 05:56:36;;;;;;;1.73;1.08;;;;;;;13.32;96.98;95655.03;5053871;28;20037;-77
2021/07/11 05:59:02;;;;;;;1.20;1.10;;;;;;;13.36;96.59;95650.78;5037632;28;20037;-79
2021/07/11 06:01:27;;;;;;;1.40;1.17;;;;;;;13.43;96.42;95661.00;5053991;28;20041;-78
2021/07/11 06:03:53;;;;;;;2.33;1.40;;;;;;;13.49;96.74;95658.00;5036511;28;20052;-78
2021/07/11 06:06:19;;;;;;;2.13;1.30;;;;;;;13.52;96.69;95664.59;5061950;28;20087;-78
2021/07/11 06:08:44;;;;;;;1.55;1.25;;;;;;;13.58;96.99;95663.44;5051906;28;20041;-77
2021/07/11 06:11:10;;;;;;;1.83;1.30;;;;;;;13.59;97.20;95665.03;5046619;28;20040;-78
2021/07/11 06:13:35;;;;;;;2.75;1.30;;;;;;;13.71;95.03;95671.75;5055944;28;20037;-78
2021/07/11 06:16:01;;;;;;;2.35;1.23;;;;;;;13.67;95.48;95671.53;5054472;28;20490;-78
2021/07/11 06:18:26;;;;;;;1.67;1.30;;;;;;;13.64;96.36;95678.16;5057070;28;20063;-78
2021/07/11 06:20:52;;;;;;;1.27;1.17;;;;;;;13.58;96.57;95668.75;5055975;28;20070;-78
2021/07/11 06:23:17;;;;;;;3.05;1.50;;;;;;;13.59;97.00;95665.03;5041897;28;20052;-78
2021/07/11 06:25:43;;;;;;;1.73;1.30;;;;;;;13.72;95.97;95678.59;5045856;28;20087;-77
2021/07/11 06:28:09;;;;;;;1.20;1.00;;;;;;;13.75;95.99;95678.03;5059829;28;20033;-78
2021/07/11 06:30:34;;;;;;;2.08;1.17;;;;;;;13.68;96.90;95679.19;5056394;28;20049;-78
2021/07/11 06:33:00;;;;;;;3.45;1.40;;;;;;;13.76;96.15;95674.31;5057383;28;20037;-79
2021/07/11 06:35:26;;;;;;;3.00;1.40;;;;;;;13.80;95.73;95685.91;5060020;28;20036;-80
2021/07/11 06:37:52;;;;;;;1.85;1.27;;;;;;;13.85;95.24;95693.78;5064101;28;20119;-77
2021/07/11 06:40:22;;;;;;;2.50;1.10;;;;;;;13.88;95.50;95698.50;5054752;28;20037;-78
2021/07/11 06:42:48;;;;;;;2.38;1.10;;;;;;;13.99;94.27;95699.13;5056813;28;20036;-79
2021/07/11 06:45:14;;;;;;;0.95;0.95;;;;;;;13.96;95.13;95695.19;5066323;28;20044;-78
2021/07/11 06:47:41;;;;;;;2.10;1.25;;;;;;;13.94;95.15;95701.88;5063095;28;20072;-80
2021/07/11 06:50:10;;;;;;;2.35;1.52;;;;;;;14.01;95.03;95707.59;5064372;28;20090;-79
2021/07/11 06:52:36;;;;;;;1.90;1.30;;;;;;;14.04;94.41;95707.78;5061088;28;20471;-78
2021/07/11 06:55:04;;;;;;;2.00;1.27;;;;;;;14.07;94.20;95713.59;5072936;28;20063;-79
2021/07/11 06:57:30;;;;;;;1.88;1.40;;;;;;;14.13;94.48;95709.81;5070536;28;20052;-77
2021/07/11 06:59:55;;;;;;;2.38;1.30;;;;;;;14.02;95.65;95715.25;5067668;28;20044;-78
2021/07/11 07:02:21;;;;;;;2.80;1.30;;;;;;;14.03;96.49;95716.78;5061917;28;20052;-78
2021/07/11 07:04:48;;;;;;;1.77;1.30;;;;;;;14.10;97.06;95713.03;5063870;28;20510;-77
2021/07/11 07:07:14;;;;;;;4.78;1.33;;;;;;;14.18;95.79;95712.38;5069037;28;20048;-78
2021/07/11 07:09:40;;;;;;;2.03;1.30;;;;;;;14.08;97.26;95712.50;5063260;28;20278;-78
2021/07/11 07:12:05;;;;;;;1.63;1.27;;;;;;;14.14;96.29;95717.44;5061021;28;20040;-77
2021/07/11 07:14:31;;;;;;;3.22;1.67;;;;;;;14.20;96.46;95715.53;5061667;28;20052;-77
2021/07/11 07:16:56;;;;;;;1.80;1.30;;;;;;;14.35;95.50;95711.84;5063909;28;20048;-78
2021/07/11 07:19:22;;;;;;;2.10;1.40;;;;;;;14.28;96.62;95714.88;5070583;28;20029;-78
2021/07/11 07:21:47;;;;;;;1.33;1.23;;;;;;;14.34;95.11;95716.38;5058268;28;20051;-78
2021/07/11 07:24:13;;;;;;;2.67;1.35;;;;;;;14.37;96.17;95715.78;5043881;28;20037;-77
2021/07/11 07:26:39;;;;;;;1.45;1.30;;;;;;;14.50;95.91;95721.44;5062096;28;20043;-78
2021/07/11 07:29:04;;;;;;;4.22;1.27;;;;;;;14.50;95.62;95718.78;5043234;28;20448;-78
2021/07/11 07:31:30;;;;;;;3.25;1.30;;;;;;;14.54;95.68;95730.38;5047747;28;20045;-78
2021/07/11 07:33:55;;;;;;;1.48;1.27;;;;;;;14.55;95.21;95721.34;5064545;28;20051;-78
2021/07/11 07:36:21;;;;;;;2.10;1.42;;;;;;;14.51;95.73;95720.34;5040012;28;20029;-80
2021/07/11 07:38:47;;;;;;;2.20;1.52;;;;;;;14.61;94.63;95730.00;5050221;28;20502;-85
2021/07/11 07:41:12;;;;;;;2.25;1.60;;;;;;;14.54;94.95;95725.09;5055274;28;20037;-84
2021/07/11 07:43:38;;;;;;;2.63;1.70;;;;;;;14.54;93.89;95725.09;5056635;28;20517;-83
2021/07/11 07:46:04;;;;;;;1.88;1.50;;;;;;;14.58;93.08;95731.34;5037232;28;20071;-83
2021/07/11 07:48:29;;;;;;;2.22;1.40;;;;;;;14.52;93.43;95727.22;5037480;28;20111;-77
2021/07/11 07:50:55;;;;;;;2.65;1.70;;;;;;;14.60;93.14;95734.50;5062347;28;20100;-78
2021/07/11 07:53:21;;;;;;;3.88;1.70;;;;;;;14.63;92.89;95739.25;5030477;28;20056;-79
2021/07/11 07:55:46;;;;;;;3.47;1.70;;;;;;;14.50;93.71;95734.69;5059341;28;20494;-79
2021/07/11 07:58:12;;;;;;;2.42;1.70;;;;;;;14.46;94.97;95738.97;5057003;28;20409;-80
2021/07/11 08:00:38;;;;;;;3.50;1.80;;;;;;;14.43;94.43;95739.56;5052903;28;20037;-78
2021/07/11 08:03:03;;;;;;;2.60;1.80;;;;;;;14.48;95.34;95737.63;5062784;28;20045;-77
2021/07/11 08:05:29;;;;;;;2.80;1.70;;;;;;;14.55;95.81;95731.94;5058770;28;20037;-80
2021/07/11 08:07:54;;;;;;;4.05;1.73;;;;;;;14.52;95.69;95735.16;5062422;28;20071;-78
2021/07/11 08:10:20;;;;;;;2.63;1.50;;;;;;;14.58;93.97;95741.16;5061373;28;20047;-77
2021/07/11 08:12:46;;;;;;;2.65;1.60;;;;;;;14.60;94.93;95739.81;5064495;28;20475;-78
2021/07/11 08:15:19;;;;;;;4.40;1.90;;;;;;;14.49;95.59;95733.09;5051849;28;20040;-78
2021/07/11 08:17:46;;;;;;;2.30;1.55;;;;;;;14.47;94.19;95740.56;5048666;28;20067;-76
2021/07/11 08:20:13;;;;;;;2.67;1.60;;;;;;;14.52;92.16;95743.09;5036276;28;20521;-78
2021/07/11 08:22:39;;;;;;;2.03;1.55;;;;;;;14.45;95.07;95747.97;5053742;28;20383;-80
2021/07/11 08:25:07;;;;;;;3.83;1.75;;;;;;;14.38;95.28;95741.19;5057702;28;20044;-78
2021/07/11 08:27:33;;;;;;;3.47;1.67;;;;;;;14.28;95.23;95748.47;5070056;28;20048;-77
2021/07/11 08:29:59;;;;;;;2.55;1.70;;;;;;;14.32;97.49;95738.91;5059818;28;20079;-78
2021/07/11 08:32:24;;;;;;;2.88;1.80;;;;;;;14.36;96.57;95739.91;5059714;28;20133;-78
2021/07/11 08:34:50;;;;;;;3.42;1.80;;;;;;;14.47;96.57;95740.56;5055084;28;20096;-78
2021/07/11 08:37:15;;;;;;;3.50;1.77;;;;;;;14.49;95.61;95731.22;5085063;28;20040;-78
2021/07/11 08:39:41;;;;;;;3.40;1.92;;;;;;;14.62;96.14;95742.19;5070139;28;20495;-77
2021/07/11 08:42:08;;;;;;;3.83;2.00;;;;;;;14.57;95.69;95740.41;5072744;28;20037;-78
2021/07/11 08:44:35;;;;;;;2.95;1.70;;;;;;;14.71;94.97;95735.97;5050026;28;20043;-78
2021/07/11 08:47:01;;;;;;;2.67;1.77;;;;;;;14.89;92.76;95736.97;5069272;28;20037;-79
2021/07/11 08:49:26;;;;;;;3.88;2.05;;;;;;;14.94;94.03;95743.25;5045903;28;20127;-75
2021/07/11 08:51:57;;;;;;;3.28;1.80;;;;;;;14.91;93.63;95739.31;5031122;28;20034;-78
2021/07/11 08:54:22;;;;;;;5.15;1.90;;;;;;;15.02;92.24;95740.72;5053179;28;20037;-77
2021/07/11 08:56:48;;;;;;;3.53;1.70;;;;;;;15.09;91.62;95744.88;5039839;28;20457;-77
2021/07/11 08:59:13;;;;;;;2.08;1.60;;;;;;;15.12;92.39;95744.28;5038865;28;20052;-76
2021/07/11 09:01:39;;;;;;;3.95;2.20;;;;;;;15.09;93.55;95744.88;5067786;28;20044;-77
2021/07/11 09:04:10;;;;;;;4.07;2.00;;;;;;;15.19;94.73;95740.16;5066781;28;20587;-78
2021/07/11 09:06:55;;;;;;;5.07;1.83;;;;;;;15.10;95.96;95735.84;5069068;28;20505;-76
2021/07/11 09:09:29;;;;;;;3.63;1.98;;;;;;;15.24;93.83;95739.28;5054922;28;20062;-76
2021/07/11 09:11:59;;;;;;;4.50;2.20;;;;;;;15.41;94.66;95744.81;5068975;28;20049;-77
2021/07/11 09:14:27;;;;;;;5.68;2.10;;;;;;;15.70;92.14;95743.75;5067245;28;20093;-77
2021/07/11 09:16:54;;;;;;;2.88;2.13;;;;;;;15.77;90.30;95738.81;5057881;28;20064;-81
2021/07/11 09:19:26;;;;;;;2.53;1.90;;;;;;;15.46;91.58;95743.13;5056121;28;20075;-78
2021/07/11 09:21:57;;;;;;;3.35;2.22;;;;;;;15.69;93.67;95758.06;5063769;28;20041;-78
2021/07/11 09:24:24;;;;;;;3.92;2.42;;;;;;;15.85;90.97;95755.16;5064367;28;20064;-78
2021/07/11 09:26:50;;;;;;;4.75;2.70;;;;;;;15.92;92.77;95755.53;5066289;28;20041;-77
2021/07/11 09:29:27;;;;;;;3.75;2.30;;;;;;;16.05;89.32;95754.72;5046875;28;20051;-77
2021/07/11 09:31:53;;;;;;;4.63;2.22;;;;;;;15.76;88.78;95753.16;5045386;28;20036;-76
2021/07/11 09:34:23;;;;;;;3.85;2.15;;;;;;;15.80;87.74;95757.91;5063234;28;20134;-77
2021/07/11 09:37:03;;;;;;;3.63;2.40;;;;;;;15.74;90.52;95755.31;5060176;28;20516;-76
2021/07/11 09:39:28;;;;;;;4.70;2.20;;;;;;;15.98;92.28;95749.03;5045428;28;20516;-77
2021/07/11 09:41:54;;;;;;;5.35;2.80;;;;;;;15.98;88.57;95749.03;5059556;28;20041;-77
2021/07/11 09:44:20;;;;;;;4.47;2.72;;;;;;;16.22;93.01;95754.09;5045714;28;20097;-78
2021/07/11 09:46:45;;;;;;;3.50;2.60;;;;;;;16.13;89.93;95760.41;5064572;28;20044;-78
2021/07/11 09:49:18;;;;;;;4.32;2.40;;;;;;;16.49;85.08;95751.66;5065411;28;20041;-78
2021/07/11 09:51:43;;;;;;;6.90;2.50;;;;;;;16.68;84.26;95741.63;5034129;28;20052;-78
2021/07/11 09:54:11;;;;;;;3.88;2.70;;;;;;;16.83;88.07;95745.00;5062858;28;20089;-78
2021/07/11 09:56:38;;;;;;;4.28;2.40;;;;;;;17.00;85.84;95744.38;5060255;28;20477;-78
2021/07/11 09:59:07;;;;;;;6.60;2.78;;;;;;;17.13;82.80;95749.59;5064375;28;20040;-78
2021/07/11 10:01:34;;;;;;;4.15;2.47;;;;;;;17.28;84.78;95742.28;5066381;28;20048;-78
2021/07/11 10:04:00;;;;;;;4.57;2.58;;;;;;;16.77;81.88;95747.78;5073040;28;20037;-78
2021/07/11 10:06:28;;;;;;;4.63;2.80;;;;;;;16.94;87.99;95746.38;5064052;28;20083;-78
2021/07/11 10:08:55;;;;;;;9.88;3.00;;;;;;;17.04;84.65;95732.00;5059887;28;20045;-78
2021/07/11 10:11:21;;;;;;;4.15;2.83;;;;;;;17.37;85.29;95737.81;5047884;28;20410;-77
2021/07/11 10:13:48;;;;;;;3.83;2.60;;;;;;;17.27;82.48;95724.78;5061716;28;20045;-77
2021/07/11 10:16:14;;;;;;;3.85;2.40;;;;;;;17.06;85.47;95743.91;5060708;28;20045;-77
2021/07/11 10:18:40;;;;;;;4.90;3.03;;;;;;;17.11;86.94;95735.03;5023419;28;20049;-77
2021/07/11 10:21:07;;;;;;;4.57;2.30;;;;;;;17.10;83.68;95736.91;5042237;28;20041;-78
2021/07/11 10:23:37;;;;;;;3.50;2.40;;;;;;;17.41;84.70;95730.00;5046363;28;20040;-77
2021/07/11 10:26:12;;;;;;;4.72;3.03;;;;;;;17.42;84.92;95729.69;5069359;28;20067;-77
2021/07/11 10:28:42;;;;;;;4.72;2.70;;;;;;;17.20;84.42;95722.56;5068572;28;20036;-77
2021/07/11 10:31:27;;;;;;;5.05;2.83;;;;;;;17.21;84.73;95733.97;5049030;28;20073;-78
2021/07/11 10:33:56;;;;;;;6.78;2.80;;;;;;;17.62;84.65;95735.53;5063860;28;20039;-78
2021/07/11 10:36:33;;;;;;;5.03;2.80;;;;;;;17.70;84.42;95734.78;5076591;28;20041;-78
2021/07/11 10:38:59;;;;;;;4.40;2.90;;;;;;;17.73;82.98;95728.84;5060808;28;20046;-77
2021/07/11 10:41:28;;;;;;;4.63;2.65;;;;;;;17.98;85.53;95723.91;5036998;28;20072;-78
2021/07/11 10:44:06;;;;;;;4.15;2.70;;;;;;;17.94;84.31;95725.63;5048403;28;20043;-78
2021/07/11 10:46:54;;;;;;;5.07;2.70;;;;;;;17.70;83.01;95729.47;5055885;28;20411;-77
2021/07/11 10:49:22;;;;;;;4.43;2.83;;;;;;;17.48;82.02;95723.16;5055399;28;20045;-76
2021/07/11 10:51:56;;;;;;;4.15;2.75;;;;;;;17.25;86.21;95718.97;5041244;28;20083;-76
2021/07/11 10:54:28;;;;;;;5.43;2.80;;;;;;;16.98;82.54;95726.03;5059941;28;20102;-76
2021/07/11 10:57:00;;;;;;;4.80;2.88;;;;;;;16.80;83.56;95725.91;5059987;28;20045;-77
2021/07/11 10:59:35;;;;;;;4.10;2.70;;;;;;;16.72;87.10;95728.53;5053481;28;20041;-77
2021/07/11 11:02:12;;;;;;;4.97;2.80;;;;;;;16.76;86.23;95730.25;5050610;28;20048;-79
2021/07/11 11:04:37;;;;;;;5.18;2.90;;;;;;;16.83;84.77;95729.06;5058561;28;20485;-77
2021/07/11 11:07:14;;;;;;;4.85;2.90;;;;;;;16.89;85.30;95723.34;5058860;28;20044;-78
2021/07/11 11:09:46;;;;;;;5.82;2.70;;;;;;;16.95;83.82;95721.34;5060797;28;20041;-79
2021/07/11 11:12:21;;;;;;;4.53;2.80;;;;;;;17.14;84.57;95713.16;5062198;28;20094;-78
2021/07/11 11:14:52;;;;;;;4.65;2.70;;;;;;;17.17;85.48;95711.75;5066168;28;20506;-77
2021/07/11 11:17:31;;;;;;;4.38;2.60;;;;;;;17.02;83.58;95720.91;5040797;28;20045;-79
2021/07/11 11:19:58;;;;;;;4.97;2.72;;;;;;;17.06;85.09;95727.97;5044240;28;20067;-78
2021/07/11 11:22:24;;;;;;;4.78;2.78;;;;;;;17.04;86.54;95724.84;5051123;28;20038;-79
2021/07/11 11:24:50;;;;;;;4.80;2.80;;;;;;;17.16;85.48;95726.16;5059431;28;20518;-78
2021/07/11 11:27:30;;;;;;;4.07;2.60;;;;;;;16.91;83.12;95731.00;5043520;28;20053;-78
2021/07/11 11:30:15;;;;;;;5.82;2.97;;;;;;;17.08;85.43;95730.31;5060727;28;20053;-77
2021/07/11 11:32:41;;;;;;;5.45;2.60;;;;;;;17.35;86.85;95729.34;5031182;28;20051;-78
2021/07/11 11:35:08;;;;;;;4.82;2.67;;;;;;;17.34;83.16;95727.78;5046744;28;20067;-76
2021/07/11 11:37:38;;;;;;;5.85;3.08;;;;;;;17.46;85.22;95722.66;5040460;28;20044;-82